Hialeah, FL (33010)

3:27 AM EDT on September 25, 2016 (GMT -0400)
Little Havana-West Flagler Street in Miami Florida | | Change Station

Elev 13 ft 25.77 °N, 80.25 °W | Updated 10 seconds ago

Mostly Cloudy
Mostly Cloudy
74.8 °F
Feels Like 74 °F
N
0.9
Wind Variable Wind from NNE
Gusts 2.0 mph

Today
High -- | Low -- °F
--% Chance of Precip.
Yesterday
High -- | Low -- °F
Precip. -- in
Pressure 29.98 in
Visibility 10.0 miles
Clouds Few 2000 ft
Mostly Cloudy 25000 ft
Heat Index 74 °F
Dew Point 70 °F
Humidity 86%
Rainfall 0.00 in
Snow Depth Not available.
7:11 AM 7:13 PM
Waning Crescent, 30% visible
METAR KMIA 250653Z 00000KT 10SM FEW020 BKN250 24/23 A2998 RMK AO2 SLP152 FRQ LTGICCA N AND NE CB DSNT N AND NE MOV W T02390233 $
Pressure 29.98 in
Visibility 10.0 miles
Clouds Few 2000 ft
Mostly Cloudy 25000 ft
Heat Index 74 °F
Dew Point 70 °F
Humidity 86%
Rainfall 0.00 in
Snow Depth Not available.
7:11 AM 7:13 PM
Waning Crescent, 30% visible
METAR KMIA 250653Z 00000KT 10SM FEW020 BKN250 24/23 A2998 RMK AO2 SLP152 FRQ LTGICCA N AND NE CB DSNT N AND NE MOV W T02390233 $

10-Day Weather Forecast

Almanac

Astronomy

Sep. 25, 2016 Rise Set
Actual Time
Civil Twilight
Nautical Twilight
Astronomical Twilight
Moon
Length of Visible Light
Length of Day
Tomorrow will be .
, % of the Moon is Illuminated

Today's Extremes

State Highs State Lows

Community

WunderPhotos

Upload Photos

1,941,554 photos uploaded!

WunderBlog® & News

Nearby

Air Quality

  Air Quality AQ Index Pollutant
Not available.

Snow Depth

Station Depth Elevation

Earthquake Activity

City Distance Mag. Time & Date
Minimum magnitude displayed is 2.5.

Coastal Water Temperatures

Place Temperature

Stations

Nearby Weather Stations

Station Location Temp. Windchill Dew Point Humidity Wind Precip. Elev Updated Type
                   

Watches & Warnings

There are currently no watches in effect.